createdAt,value
2019-03-22T00:02:26.521Z,6.83
2019-03-22T00:04:54.084Z,7.83
2019-03-22T00:07:21.623Z,7.57
2019-03-22T00:09:49.184Z,7.50
2019-03-22T00:12:16.716Z,7.70
2019-03-22T00:14:44.272Z,7.47
2019-03-22T00:17:11.843Z,7.83
2019-03-22T00:19:39.388Z,7.00
2019-03-22T00:22:06.956Z,7.60
2019-03-22T00:24:35.255Z,7.57
2019-03-22T00:27:03.595Z,6.87
2019-03-22T00:29:31.144Z,6.40
2019-03-22T00:31:58.716Z,7.53
2019-03-22T00:34:27.021Z,7.97
2019-03-22T00:36:54.579Z,6.90
2019-03-22T00:39:22.115Z,7.73
2019-03-22T00:41:49.671Z,7.83
2019-03-22T00:44:17.235Z,7.50
2019-03-22T00:46:44.777Z,7.60
2019-03-22T00:49:12.339Z,8.37
2019-03-22T00:51:39.903Z,7.60
2019-03-22T00:54:08.469Z,7.70
2019-03-22T00:56:36.004Z,7.17
2019-03-22T00:59:03.567Z,7.33
2019-03-22T01:01:31.139Z,7.40
2019-03-22T01:03:58.707Z,7.40
2019-03-22T01:06:26.238Z,7.97
2019-03-22T01:08:53.776Z,7.30
2019-03-22T01:11:21.343Z,6.73
2019-03-22T01:13:48.885Z,8.73
2019-03-22T01:16:16.456Z,7.70
2019-03-22T01:18:43.995Z,7.43
2019-03-22T01:21:11.559Z,7.17
2019-03-22T01:23:39.106Z,6.87
2019-03-22T01:26:07.167Z,6.70
2019-03-22T01:28:34.702Z,7.00
2019-03-22T01:31:02.246Z,7.97
2019-03-22T01:33:30.570Z,7.53
2019-03-22T01:35:58.128Z,7.17
2019-03-22T01:38:25.690Z,6.60
2019-03-22T01:40:53.218Z,6.60
2019-03-22T01:43:21.755Z,7.23
2019-03-22T01:45:49.291Z,7.70
2019-03-22T01:48:16.855Z,7.87
2019-03-22T01:50:44.393Z,8.93
2019-03-22T01:53:11.955Z,7.10
2019-03-22T01:55:39.487Z,7.87
2019-03-22T01:58:07.047Z,7.67
2019-03-22T02:00:34.580Z,7.73
2019-03-22T02:03:02.907Z,7.70
2019-03-22T02:05:30.443Z,8.03
2019-03-22T02:07:58.003Z,7.83
2019-03-22T02:10:25.555Z,8.53
2019-03-22T02:12:53.111Z,8.30
2019-03-22T02:15:20.671Z,7.50
2019-03-22T02:17:48.230Z,8.40
2019-03-22T02:20:15.763Z,8.30
2019-03-22T02:22:44.092Z,8.03
2019-03-22T02:25:12.633Z,7.53
2019-03-22T02:27:40.163Z,8.37
2019-03-22T02:30:08.480Z,8.00
2019-03-22T02:32:36.057Z,7.40
2019-03-22T02:35:03.625Z,7.40
2019-03-22T02:37:31.169Z,7.80
2019-03-22T02:39:58.701Z,8.47
2019-03-22T02:42:26.268Z,8.20
2019-03-22T02:44:53.803Z,6.80
2019-03-22T02:47:21.377Z,8.50
2019-03-22T02:49:48.937Z,7.97
2019-03-22T02:52:16.469Z,8.13
2019-03-22T02:54:44.059Z,7.50
2019-03-22T02:57:11.617Z,7.90
2019-03-22T02:59:39.192Z,8.73
2019-03-22T03:02:06.724Z,8.00
2019-03-22T03:04:34.294Z,8.67
2019-03-22T03:07:01.871Z,8.47
2019-03-22T03:09:29.403Z,7.67
2019-03-22T03:11:56.968Z,7.83
2019-03-22T03:14:25.542Z,7.93
2019-03-22T03:16:53.084Z,8.10
2019-03-22T03:19:20.641Z,8.77
2019-03-22T03:21:48.205Z,7.70
2019-03-22T03:24:15.782Z,7.67
2019-03-22T03:26:43.343Z,7.70
2019-03-22T03:29:10.944Z,8.53
2019-03-22T03:31:38.532Z,8.40
2019-03-22T03:34:06.085Z,8.13
2019-03-22T03:36:35.037Z,7.93
2019-03-22T03:39:02.210Z,8.03
2019-03-22T03:41:29.747Z,8.27
2019-03-22T03:43:57.318Z,8.50
2019-03-22T03:46:25.615Z,7.60
2019-03-22T03:48:53.183Z,9.23
2019-03-22T03:51:20.721Z,9.40
2019-03-22T03:53:48.296Z,7.47
2019-03-22T03:56:15.847Z,8.80
2019-03-22T03:58:52.354Z,8.50
2019-03-22T04:01:10.979Z,7.80
2019-03-22T04:03:40.492Z,9.47
2019-03-22T04:06:08.028Z,8.97
2019-03-22T04:08:35.561Z,8.40
2019-03-22T04:11:03.136Z,8.37
2019-03-22T04:13:30.667Z,8.30
2019-03-22T04:15:59.009Z,8.40
2019-03-22T04:18:26.552Z,9.07
2019-03-22T04:20:54.129Z,9.27
2019-03-22T04:23:21.682Z,9.07
2019-03-22T04:25:49.247Z,8.33
2019-03-22T04:28:16.784Z,7.60
2019-03-22T04:30:44.338Z,8.77
2019-03-22T04:33:11.876Z,8.27
2019-03-22T04:35:39.439Z,8.80
2019-03-22T04:38:06.975Z,8.70
2019-03-22T04:40:34.531Z,8.70
2019-03-22T04:43:02.068Z,7.93
2019-03-22T04:45:30.443Z,9.37
2019-03-22T04:50:52.023Z,7.90
2019-03-22T04:53:21.780Z,9.70
2019-03-22T04:55:47.165Z,9.17
2019-03-22T04:58:14.698Z,7.40
2019-03-22T05:00:42.227Z,9.40
2019-03-22T05:03:09.788Z,9.13
2019-03-22T05:05:37.330Z,8.60
2019-03-22T05:08:05.659Z,13.17
2019-03-22T05:10:33.195Z,8.77
2019-03-22T05:13:00.759Z,8.90
2019-03-22T05:15:28.290Z,8.33
2019-03-22T05:17:55.884Z,9.17
2019-03-22T05:20:23.419Z,8.70
2019-03-22T05:22:50.988Z,9.17
2019-03-22T05:25:18.523Z,9.60
2019-03-22T05:27:46.080Z,8.23
2019-03-22T05:33:16.467Z,7.60
2019-03-22T05:35:45.015Z,9.30
2019-03-22T05:38:12.577Z,9.13
2019-03-22T05:40:40.107Z,9.37
2019-03-22T05:43:07.671Z,8.50
2019-03-22T05:45:35.251Z,8.87
2019-03-22T05:48:02.804Z,9.37
2019-03-22T05:50:30.344Z,9.10
2019-03-22T05:52:57.907Z,8.87
2019-03-22T05:55:25.472Z,10.03
2019-03-22T05:57:53.011Z,9.90
2019-03-22T06:00:20.579Z,10.97
2019-03-22T06:02:48.111Z,10.07
2019-03-22T06:05:16.440Z,9.80
2019-03-22T06:07:43.973Z,10.10
2019-03-22T06:10:11.526Z,9.93
2019-03-22T06:12:39.059Z,8.77
2019-03-22T06:15:06.620Z,10.10
2019-03-22T06:17:34.923Z,10.67
2019-03-22T06:20:02.479Z,10.57
2019-03-22T06:22:30.017Z,12.23
2019-03-22T06:24:57.575Z,11.53
2019-03-22T06:27:25.115Z,12.17
2019-03-22T06:29:54.662Z,17.90
2019-03-22T06:32:21.825Z,18.67
2019-03-22T06:34:49.384Z,15.37
2019-03-22T06:37:16.925Z,10.00
2019-03-22T06:39:44.458Z,9.20
2019-03-22T06:42:12.025Z,9.70
2019-03-22T06:44:39.559Z,10.27
2019-03-22T06:47:07.127Z,10.10
2019-03-22T06:49:34.667Z,10.53
2019-03-22T06:52:03.008Z,10.43
2019-03-22T06:54:31.838Z,11.03
2019-03-22T06:56:58.151Z,10.37
2019-03-22T06:59:25.686Z,10.03
2019-03-22T07:01:53.248Z,9.30
2019-03-22T07:04:20.818Z,8.70
2019-03-22T07:06:48.353Z,8.60
2019-03-22T07:09:15.908Z,8.90
2019-03-22T07:11:43.459Z,8.90
2019-03-22T07:14:11.021Z,9.33
2019-03-22T07:16:38.557Z,9.60
2019-03-22T07:19:06.120Z,8.00
2019-03-22T07:21:33.657Z,7.73
2019-03-22T07:24:01.214Z,9.23
2019-03-22T07:26:30.136Z,8.67
2019-03-22T07:28:56.358Z,8.27
2019-03-22T07:31:23.886Z,8.23
2019-03-22T07:33:51.443Z,8.20
2019-03-22T07:36:18.981Z,8.45
2019-03-22T07:38:46.519Z,8.83
2019-03-22T07:41:14.083Z,10.10
2019-03-22T07:43:41.636Z,10.10
2019-03-22T07:46:09.203Z,8.60
2019-03-22T07:48:37.503Z,9.03
2019-03-22T07:51:05.067Z,10.00
2019-03-22T07:53:32.595Z,9.87
2019-03-22T07:56:01.129Z,10.93
2019-03-22T07:58:28.663Z,9.80
2019-03-22T08:00:56.224Z,8.53
2019-03-22T08:03:23.785Z,10.03
2019-03-22T08:05:51.713Z,9.10
2019-03-22T08:08:18.928Z,10.67
2019-03-22T08:10:46.500Z,11.43
2019-03-22T08:13:14.064Z,11.23
2019-03-22T08:15:41.605Z,10.20
2019-03-22T08:18:09.162Z,10.53
2019-03-22T08:20:38.748Z,10.20
2019-03-22T08:23:04.340Z,10.00
2019-03-22T08:25:32.546Z,10.90
2019-03-22T08:27:59.517Z,10.13
2019-03-22T08:30:27.060Z,10.93
2019-03-22T08:32:55.591Z,10.70
2019-03-22T08:35:23.143Z,9.67
2019-03-22T08:37:52.775Z,12.10
2019-03-22T08:40:18.310Z,11.47
2019-03-22T08:42:45.880Z,10.83
2019-03-22T08:45:13.432Z,10.90
2019-03-22T08:47:41.043Z,10.83
2019-03-22T08:50:08.609Z,11.20
2019-03-22T08:52:36.171Z,11.37
2019-03-22T08:55:03.722Z,11.33
2019-03-22T08:57:31.267Z,11.07
2019-03-22T08:59:58.879Z,10.87
2019-03-22T09:02:26.419Z,11.30
2019-03-22T09:04:54.024Z,11.37
2019-03-22T09:07:24.340Z,12.67
2019-03-22T09:09:49.213Z,11.60
2019-03-22T09:12:16.743Z,11.47
2019-03-22T09:14:44.307Z,13.30
2019-03-22T09:17:11.874Z,13.17
2019-03-22T09:19:39.441Z,12.27
2019-03-22T09:22:07.010Z,13.57
2019-03-22T09:24:39.405Z,13.20
2019-03-22T09:27:02.151Z,13.20
2019-03-22T09:29:29.712Z,11.40
2019-03-22T09:31:57.252Z,11.17
2019-03-22T09:34:33.755Z,10.50
2019-03-22T09:36:52.437Z,10.90
2019-03-22T09:39:19.975Z,11.37
2019-03-22T09:41:47.536Z,12.20
2019-03-22T09:44:15.930Z,11.97
2019-03-22T09:46:43.479Z,12.23
2019-03-22T09:49:11.019Z,12.80
2019-03-22T09:51:39.571Z,11.40
2019-03-22T09:54:07.102Z,12.27
2019-03-22T09:56:46.440Z,12.27
2019-03-22T09:59:02.286Z,12.90
2019-03-22T10:01:29.885Z,12.60
2019-03-22T10:03:57.425Z,12.70
2019-03-22T10:06:25.029Z,12.73
2019-03-22T10:08:52.652Z,12.90
2019-03-22T10:11:20.183Z,13.03
2019-03-22T10:13:48.450Z,12.73
2019-03-22T10:16:15.342Z,12.50
2019-03-22T10:18:42.918Z,13.33
2019-03-22T10:21:21.843Z,13.27
2019-03-22T10:23:38.050Z,13.07
2019-03-22T10:26:05.615Z,12.50
2019-03-22T10:28:33.151Z,13.03
2019-03-22T10:31:00.729Z,14.03
2019-03-22T10:33:28.303Z,13.83
2019-03-22T10:35:55.864Z,13.37
2019-03-22T10:38:31.093Z,14.37
2019-03-22T10:40:51.035Z,13.60
2019-03-22T10:43:18.570Z,14.20
2019-03-22T10:45:47.020Z,14.57
2019-03-22T10:48:14.577Z,13.00
2019-03-22T10:50:42.503Z,15.50
2019-03-22T10:53:10.045Z,13.90
2019-03-22T10:55:37.639Z,14.03
2019-03-22T10:58:19.871Z,14.00
2019-03-22T11:00:32.792Z,12.87
2019-03-22T11:03:00.335Z,15.37
2019-03-22T11:05:27.879Z,15.97
2019-03-22T11:07:55.446Z,15.80
2019-03-22T11:10:22.994Z,15.70
2019-03-22T11:12:50.572Z,16.23
2019-03-22T11:15:18.218Z,15.83
2019-03-22T11:17:46.637Z,16.00
2019-03-22T11:20:15.938Z,14.33
2019-03-22T11:22:43.504Z,15.30
2019-03-22T11:25:11.919Z,16.62
2019-03-22T11:27:39.479Z,17.47
2019-03-22T11:30:07.041Z,17.07
2019-03-22T11:32:34.603Z,15.87
2019-03-22T11:35:02.216Z,16.10
2019-03-22T11:37:30.744Z,17.00
2019-03-22T11:39:58.303Z,18.07
2019-03-22T11:42:25.871Z,19.40
2019-03-22T11:44:53.411Z,19.40
2019-03-22T11:47:20.955Z,16.87
2019-03-22T11:49:48.517Z,20.93
2019-03-22T11:52:16.056Z,18.67
2019-03-22T11:54:43.623Z,20.07
2019-03-22T11:57:11.166Z,19.03
2019-03-22T11:59:39.711Z,17.57
2019-03-22T12:02:07.250Z,17.20
2019-03-22T12:04:35.595Z,16.40
2019-03-22T12:07:03.175Z,20.40
2019-03-22T12:09:30.730Z,21.97
2019-03-22T12:11:58.267Z,16.33
2019-03-22T12:14:25.835Z,17.77
2019-03-22T12:16:53.370Z,16.53
2019-03-22T12:19:21.959Z,18.13
2019-03-22T12:21:49.503Z,21.50
2019-03-22T12:24:18.680Z,27.70
2019-03-22T12:26:44.651Z,25.93
2019-03-22T12:29:12.224Z,18.50
2019-03-22T12:31:39.802Z,17.60
2019-03-22T12:34:07.342Z,18.67
2019-03-22T12:36:34.912Z,16.37
2019-03-22T12:39:02.495Z,17.57
2019-03-22T12:41:30.064Z,22.90
2019-03-22T12:43:57.606Z,17.40
2019-03-22T12:46:25.171Z,17.60
2019-03-22T12:48:52.708Z,17.00
2019-03-22T12:51:20.279Z,22.67
2019-03-22T12:53:47.819Z,19.53
2019-03-22T12:56:15.400Z,20.43
2019-03-22T12:58:42.971Z,16.73
2019-03-22T13:01:10.510Z,17.57
2019-03-22T13:03:38.083Z,17.03
2019-03-22T13:06:06.347Z,18.80
2019-03-22T13:08:33.947Z,17.53
2019-03-22T13:11:01.494Z,17.50
2019-03-22T13:13:29.055Z,16.47
2019-03-22T13:15:56.594Z,21.17
2019-03-22T13:18:24.157Z,20.00
2019-03-22T13:20:51.698Z,21.03
2019-03-22T13:23:19.263Z,18.37
2019-03-22T13:25:46.832Z,29.53
2019-03-22T13:28:14.404Z,20.87
2019-03-22T13:30:41.943Z,19.50
2019-03-22T13:33:09.513Z,30.40
2019-03-22T13:35:37.055Z,16.80
2019-03-22T13:38:04.623Z,17.30
2019-03-22T13:40:32.937Z,19.83
2019-03-22T13:43:00.481Z,17.90
2019-03-22T13:45:28.051Z,21.37
2019-03-22T13:47:55.618Z,22.63
2019-03-22T13:50:24.399Z,16.73
2019-03-22T13:52:51.939Z,17.50
2019-03-22T13:55:20.276Z,16.50
2019-03-22T13:57:47.808Z,19.13
2019-03-22T14:00:15.385Z,18.03
2019-03-22T14:02:42.935Z,18.30
2019-03-22T14:05:10.540Z,18.80
2019-03-22T14:07:38.079Z,18.87
2019-03-22T14:10:08.076Z,16.87
2019-03-22T14:12:37.254Z,17.10
2019-03-22T14:15:03.252Z,18.00
2019-03-22T14:17:30.816Z,19.00
2019-03-22T14:19:58.351Z,18.50
2019-03-22T14:22:25.919Z,17.73
2019-03-22T14:24:53.456Z,19.70
2019-03-22T14:27:22.784Z,22.00
2019-03-22T14:29:50.324Z,18.80
2019-03-22T14:32:17.891Z,18.60
2019-03-22T14:34:45.426Z,18.77
2019-03-22T14:37:13.760Z,18.57
2019-03-22T14:39:41.295Z,19.40
2019-03-22T14:42:10.041Z,18.13
2019-03-22T14:44:36.438Z,20.17
2019-03-22T14:47:04.008Z,18.70
2019-03-22T14:49:31.543Z,20.77
2019-03-22T14:51:59.111Z,20.07
2019-03-22T14:54:26.687Z,18.80
2019-03-22T14:56:54.230Z,20.13
2019-03-22T14:59:21.805Z,20.50
2019-03-22T15:01:50.139Z,19.50
2019-03-22T15:04:17.686Z,20.40
2019-03-22T15:06:45.315Z,20.27
2019-03-22T15:09:12.879Z,21.33
2019-03-22T15:11:40.422Z,21.03
2019-03-22T15:14:13.699Z,18.90
2019-03-22T15:16:41.240Z,19.80
2019-03-22T15:19:13.714Z,20.93
2019-03-22T15:21:46.919Z,20.37
2019-03-22T15:27:14.259Z,18.90
2019-03-22T15:29:48.331Z,20.27
2019-03-22T15:32:31.543Z,19.20
2019-03-22T15:35:04.650Z,19.70
2019-03-22T15:37:49.011Z,19.73
2019-03-22T15:40:16.588Z,21.73
2019-03-22T15:42:44.128Z,20.70
2019-03-22T15:45:12.237Z,20.73
2019-03-22T15:47:39.839Z,21.47
2019-03-22T15:50:07.383Z,20.80
2019-03-22T15:52:34.950Z,20.73
2019-03-22T15:55:02.487Z,20.53
2019-03-22T15:57:30.068Z,21.67
2019-03-22T15:59:57.608Z,20.13
2019-03-22T16:02:25.172Z,22.40
2019-03-22T16:04:52.711Z,22.37
2019-03-22T16:07:21.129Z,22.20
2019-03-22T16:09:48.674Z,21.60
2019-03-22T16:12:16.243Z,20.67
2019-03-22T16:14:43.775Z,22.33
2019-03-22T16:17:11.320Z,23.60
2019-03-22T16:19:38.883Z,21.10
2019-03-22T16:22:06.427Z,22.20
2019-03-22T16:24:34.763Z,22.80
2019-03-22T16:27:02.311Z,22.07
2019-03-22T16:29:29.871Z,21.43
2019-03-22T16:31:57.413Z,22.53
2019-03-22T16:34:24.978Z,23.47
2019-03-22T16:36:52.519Z,20.93
2019-03-22T16:39:20.090Z,22.67
2019-03-22T16:41:47.627Z,22.87
2019-03-22T16:44:15.189Z,20.73
2019-03-22T16:46:42.727Z,20.30
2019-03-22T16:49:10.291Z,18.50
2019-03-22T16:51:37.836Z,19.13
2019-03-22T16:54:05.376Z,17.97
2019-03-22T16:56:32.942Z,18.47
2019-03-22T16:59:01.248Z,18.43
2019-03-22T17:01:28.863Z,16.13
2019-03-22T17:04:04.131Z,13.00
2019-03-22T17:06:24.030Z,12.50
2019-03-22T17:08:51.568Z,12.20
2019-03-22T17:11:19.144Z,11.10
2019-03-22T17:13:46.734Z,12.23
2019-03-22T17:16:14.282Z,12.53
2019-03-22T17:18:41.848Z,12.20
2019-03-22T17:21:09.419Z,12.17
2019-03-22T17:23:37.967Z,11.87
2019-03-22T17:26:05.503Z,12.00
2019-03-22T17:28:33.184Z,12.30
2019-03-22T17:31:00.755Z,12.57
2019-03-22T17:33:28.501Z,12.80
2019-03-22T17:35:56.067Z,13.03
2019-03-22T17:38:23.617Z,12.20
2019-03-22T17:40:51.175Z,12.47
2019-03-22T17:43:18.715Z,12.33
2019-03-22T17:45:46.282Z,11.13
2019-03-22T17:48:14.094Z,11.57
2019-03-22T17:50:41.645Z,11.03
2019-03-22T17:53:10.202Z,11.33
2019-03-22T17:55:37.762Z,12.43
2019-03-22T17:58:05.306Z,11.07
2019-03-22T18:00:32.875Z,10.67
2019-03-22T18:03:00.424Z,10.40
2019-03-22T18:05:27.964Z,10.43
2019-03-22T18:07:55.526Z,10.90
2019-03-22T18:10:23.091Z,11.23
2019-03-22T18:12:50.660Z,9.10
2019-03-22T18:15:18.300Z,9.80
2019-03-22T18:17:46.063Z,8.80
2019-03-22T18:20:13.606Z,8.73
2019-03-22T18:22:41.186Z,9.20
2019-03-22T18:25:08.732Z,10.17
2019-03-22T18:27:36.294Z,9.40
2019-03-22T18:30:05.327Z,9.30
2019-03-22T18:32:32.890Z,10.93
2019-03-22T18:35:00.429Z,9.57
2019-03-22T18:37:27.967Z,10.30
2019-03-22T18:39:55.531Z,10.17
2019-03-22T18:42:23.088Z,9.83
2019-03-22T18:44:50.645Z,9.87
2019-03-22T18:47:18.183Z,10.27
2019-03-22T18:49:45.743Z,8.77
2019-03-22T18:52:13.311Z,9.40
2019-03-22T18:54:40.871Z,9.17
2019-03-22T18:57:08.407Z,8.43
2019-03-22T18:59:36.156Z,8.90
2019-03-22T19:02:03.725Z,9.50
2019-03-22T19:04:32.621Z,9.90
2019-03-22T19:07:00.170Z,9.87
2019-03-22T19:09:27.731Z,10.50
2019-03-22T19:11:55.284Z,9.70
2019-03-22T19:14:22.957Z,11.90
2019-03-22T19:16:50.582Z,11.50
2019-03-22T19:19:18.147Z,10.57
2019-03-22T19:21:45.734Z,9.97
2019-03-22T19:24:13.795Z,9.30
2019-03-22T19:26:41.359Z,8.40
2019-03-22T19:29:08.927Z,9.63
2019-03-22T19:31:36.774Z,10.17
2019-03-22T19:34:04.844Z,9.30
2019-03-22T19:36:32.431Z,10.30
2019-03-22T19:38:59.967Z,10.53
2019-03-22T19:41:27.531Z,10.10
2019-03-22T19:43:55.079Z,9.60
2019-03-22T19:46:22.647Z,11.03
2019-03-22T19:48:50.183Z,10.97
2019-03-22T19:51:17.763Z,11.07
2019-03-22T19:53:45.299Z,12.33
2019-03-22T19:56:12.863Z,12.70
2019-03-22T19:58:40.409Z,14.20
2019-03-22T20:01:07.972Z,16.60
2019-03-22T20:03:35.515Z,16.70
2019-03-22T20:06:03.192Z,16.80
2019-03-22T20:08:30.731Z,16.63
2019-03-22T20:10:58.291Z,15.87
2019-03-22T20:13:25.856Z,17.00
2019-03-22T20:15:53.388Z,16.27
2019-03-22T20:18:22.715Z,13.23
2019-03-22T20:20:50.244Z,15.10
2019-03-22T20:23:18.011Z,13.27
2019-03-22T20:25:45.570Z,11.90
2019-03-22T20:28:13.145Z,13.17
2019-03-22T20:30:40.692Z,18.40
2019-03-22T20:33:08.369Z,13.07
2019-03-22T20:35:35.935Z,13.03
2019-03-22T20:38:03.468Z,12.40
2019-03-22T20:40:31.028Z,15.13
2019-03-22T20:42:58.559Z,14.97
2019-03-22T20:45:26.123Z,14.60
2019-03-22T20:47:53.683Z,14.40
2019-03-22T20:50:22.012Z,13.07
2019-03-22T20:52:49.806Z,14.27
2019-03-22T20:55:18.139Z,13.30
2019-03-22T20:57:45.702Z,14.87
2019-03-22T21:00:13.257Z,13.93
2019-03-22T21:02:40.820Z,14.37
2019-03-22T21:05:08.379Z,13.10
2019-03-22T21:07:35.932Z,14.00
2019-03-22T21:10:03.513Z,12.30
2019-03-22T21:12:31.059Z,12.63
2019-03-22T21:14:58.651Z,11.23
2019-03-22T21:17:26.191Z,13.17
2019-03-22T21:19:53.737Z,11.10
2019-03-22T21:22:21.310Z,11.33
2019-03-22T21:24:48.846Z,11.80
2019-03-22T21:27:16.418Z,10.93
2019-03-22T21:29:44.631Z,10.40
2019-03-22T21:32:11.568Z,11.13
2019-03-22T21:34:39.276Z,11.23
2019-03-22T21:37:06.960Z,11.53
2019-03-22T21:39:34.499Z,11.47
2019-03-22T21:42:02.059Z,10.40
2019-03-22T21:44:29.610Z,10.80
2019-03-22T21:46:57.171Z,11.27
2019-03-22T21:49:24.712Z,10.93
2019-03-22T21:51:53.416Z,11.00
2019-03-22T21:54:20.947Z,10.83
2019-03-22T21:56:48.508Z,12.73
2019-03-22T21:59:16.052Z,12.10
2019-03-22T22:01:43.590Z,11.97
2019-03-22T22:04:11.156Z,10.50
2019-03-22T22:06:38.715Z,10.90
2019-03-22T22:09:06.276Z,10.53
2019-03-22T22:11:33.824Z,10.50
2019-03-22T22:14:01.388Z,11.37
2019-03-22T22:16:28.935Z,11.30
2019-03-22T22:18:56.494Z,11.90
2019-03-22T22:21:24.027Z,11.00
2019-03-22T22:23:51.634Z,11.50
2019-03-22T22:26:19.167Z,10.73
2019-03-22T22:28:46.723Z,12.07
2019-03-22T22:31:14.260Z,11.30
2019-03-22T22:33:41.795Z,12.80
2019-03-22T22:36:09.359Z,10.93
2019-03-22T22:38:37.684Z,10.67
2019-03-22T22:41:05.216Z,11.20
2019-03-22T22:43:32.958Z,11.43
2019-03-22T22:46:00.379Z,11.83
2019-03-22T22:48:27.915Z,11.93
2019-03-22T22:50:55.484Z,12.17
2019-03-22T22:53:23.016Z,12.43
2019-03-22T22:55:50.579Z,13.43
2019-03-22T22:58:18.115Z,12.37
2019-03-22T23:00:45.680Z,13.97
2019-03-22T23:03:14.173Z,13.20
2019-03-22T23:05:41.733Z,13.63
2019-03-22T23:08:09.271Z,12.77
2019-03-22T23:10:36.844Z,12.50
2019-03-22T23:13:04.374Z,10.33
2019-03-22T23:15:31.931Z,11.93
2019-03-22T23:17:59.475Z,11.63
2019-03-22T23:20:27.803Z,11.43
2019-03-22T23:22:55.334Z,10.60
2019-03-22T23:25:22.867Z,13.70
2019-03-22T23:27:50.426Z,10.23
2019-03-22T23:30:18.019Z,10.37
2019-03-22T23:32:46.559Z,11.43
2019-03-22T23:35:14.092Z,11.60
2019-03-22T23:37:41.655Z,11.87
2019-03-22T23:40:09.193Z,10.40
2019-03-22T23:42:36.752Z,11.57
2019-03-22T23:45:05.207Z,10.70
2019-03-22T23:47:32.813Z,11.73
2019-03-22T23:50:00.351Z,11.13
2019-03-22T23:52:27.895Z,10.97
2019-03-22T23:54:55.460Z,10.40
2019-03-22T23:57:23.019Z,10.57
2019-03-22T23:59:51.540Z,9.00
